createdAt,value
2018-06-02T00:01:11.587Z,17.67
2018-06-02T00:03:41.514Z,17.65
2018-06-02T00:06:11.023Z,17.73
2018-06-02T00:08:40.548Z,17.66
2018-06-02T00:11:10.152Z,17.73
2018-06-02T00:13:39.882Z,17.81
2018-06-02T00:16:09.398Z,17.67
2018-06-02T00:18:38.918Z,17.61
2018-06-02T00:21:08.517Z,17.51
2018-06-02T00:23:37.807Z,17.53
2018-06-02T00:26:07.319Z,17.70
2018-06-02T00:28:36.836Z,17.62
2018-06-02T00:31:06.067Z,17.64
2018-06-02T00:33:36.000Z,17.68
2018-06-02T00:36:05.509Z,17.78
2018-06-02T00:38:35.021Z,17.57
2018-06-02T00:41:04.555Z,17.51
2018-06-02T00:43:34.112Z,17.55
2018-06-02T00:46:04.031Z,17.67
2018-06-02T00:48:33.608Z,17.67
2018-06-02T00:51:03.138Z,17.53
2018-06-02T00:53:33.043Z,17.51
2018-06-02T00:56:02.967Z,17.37
2018-06-02T00:58:32.547Z,17.47
2018-06-02T01:01:02.083Z,17.38
2018-06-02T01:03:31.992Z,17.25
2018-06-02T01:06:01.999Z,17.18
2018-06-02T01:08:31.543Z,16.98
2018-06-02T01:11:01.103Z,17.08
2018-06-02T01:13:30.623Z,17.04
2018-06-02T01:16:00.241Z,16.92
2018-06-02T01:18:30.148Z,16.91
2018-06-02T01:21:00.082Z,16.88
2018-06-02T01:23:29.579Z,16.89
2018-06-02T01:25:59.489Z,16.91
2018-06-02T01:28:29.403Z,16.90
2018-06-02T01:30:59.087Z,16.96
2018-06-02T01:33:28.615Z,16.86
2018-06-02T01:35:58.522Z,16.82
2018-06-02T01:38:28.394Z,16.87
2018-06-02T01:40:57.916Z,16.83
2018-06-02T01:43:27.456Z,16.71
2018-06-02T01:45:57.381Z,16.78
2018-06-02T01:48:27.296Z,16.82
2018-06-02T01:50:57.228Z,16.85
2018-06-02T01:53:26.746Z,16.80
2018-06-02T01:55:56.277Z,16.84
2018-06-02T01:58:25.798Z,16.79
2018-06-02T02:00:55.304Z,16.83
2018-06-02T02:03:24.830Z,16.89
2018-06-02T02:05:54.740Z,16.66
2018-06-02T02:08:24.300Z,16.52
2018-06-02T02:10:53.859Z,16.51
2018-06-02T02:13:23.794Z,16.43
2018-06-02T02:15:53.305Z,16.47
2018-06-02T02:18:23.424Z,16.48
2018-06-02T02:20:52.953Z,16.44
2018-06-02T02:23:22.528Z,16.39
2018-06-02T02:25:52.063Z,16.38
2018-06-02T02:28:21.589Z,16.43
2018-06-02T02:30:51.152Z,16.39
2018-06-02T02:33:20.671Z,16.52
2018-06-02T02:35:50.198Z,16.48
2018-06-02T02:38:19.723Z,16.50
2018-06-02T02:40:49.270Z,16.43
2018-06-02T02:43:19.217Z,16.54
2018-06-02T02:45:48.919Z,16.55
2018-06-02T02:48:18.433Z,16.43
2018-06-02T02:50:47.959Z,16.32
2018-06-02T02:53:17.479Z,16.16
2018-06-02T02:55:47.017Z,16.10
2018-06-02T02:58:16.934Z,16.17
2018-06-02T03:00:46.446Z,16.24
2018-06-02T03:03:16.394Z,16.12
2018-06-02T03:05:45.937Z,16.01
2018-06-02T03:08:15.464Z,15.93
2018-06-02T03:10:45.402Z,15.93
2018-06-02T03:13:14.917Z,16.15
2018-06-02T03:15:44.114Z,16.08
2018-06-02T03:18:13.621Z,16.13
2018-06-02T03:20:43.133Z,15.97
2018-06-02T03:23:12.727Z,16.07
2018-06-02T03:25:42.882Z,15.89
2018-06-02T03:28:12.925Z,16.08
2018-06-02T03:30:42.503Z,16.26
2018-06-02T03:33:12.039Z,16.24
2018-06-02T03:35:41.558Z,16.13
2018-06-02T03:38:11.170Z,16.14
2018-06-02T03:40:41.085Z,16.18
2018-06-02T03:43:11.035Z,16.25
2018-06-02T03:45:41.376Z,16.46
2018-06-02T03:48:11.357Z,16.81
2018-06-02T03:50:40.894Z,17.05
2018-06-02T03:53:11.145Z,17.47
2018-06-02T03:55:40.654Z,18.11
2018-06-02T03:58:10.184Z,18.51
2018-06-02T04:00:40.106Z,18.89
2018-06-02T04:03:10.028Z,19.34
2018-06-02T04:05:39.554Z,19.60
2018-06-02T04:08:09.633Z,20.01
2018-06-02T04:10:39.716Z,20.39
2018-06-02T04:13:10.186Z,20.49
2018-06-02T04:15:40.270Z,20.61
2018-06-02T04:18:10.728Z,20.88
2018-06-02T04:20:40.842Z,21.22
2018-06-02T04:23:10.928Z,21.89
2018-06-02T04:25:41.401Z,22.59
2018-06-02T04:28:11.519Z,23.50
2018-06-02T04:30:41.591Z,23.73
2018-06-02T04:33:12.073Z,24.14
2018-06-02T04:35:42.179Z,24.66
2018-06-02T04:38:12.259Z,25.26
2018-06-02T04:40:42.735Z,25.80
2018-06-02T04:43:12.982Z,25.95
2018-06-02T04:45:43.070Z,26.43
2018-06-02T04:48:13.135Z,26.42
2018-06-02T04:50:43.323Z,26.36
2018-06-02T04:53:13.335Z,26.64
2018-06-02T04:55:43.154Z,26.73
2018-06-02T04:58:12.943Z,27.10
2018-06-02T05:00:42.727Z,27.39
2018-06-02T05:03:12.577Z,28.08
2018-06-02T05:05:42.829Z,28.06
2018-06-02T05:08:12.649Z,26.78
2018-06-02T05:10:42.447Z,26.76
2018-06-02T05:13:12.407Z,27.41
2018-06-02T05:15:42.228Z,28.44
2018-06-02T05:18:12.006Z,29.20
2018-06-02T05:20:42.196Z,29.82
2018-06-02T05:23:11.988Z,30.16
2018-06-02T05:25:41.776Z,29.42
2018-06-02T05:28:11.563Z,29.62
2018-06-02T05:30:41.826Z,29.99
2018-06-02T05:33:11.615Z,29.57
2018-06-02T05:35:41.811Z,30.67
2018-06-02T05:38:11.604Z,31.24
2018-06-02T05:40:41.868Z,30.46
2018-06-02T05:43:12.070Z,30.73
2018-06-02T05:45:41.877Z,31.43
2018-06-02T05:48:11.671Z,31.23
2018-06-02T05:50:41.457Z,31.02
2018-06-02T05:53:11.239Z,30.68
2018-06-02T05:55:41.423Z,30.00
2018-06-02T05:58:11.203Z,29.48
2018-06-02T06:00:41.317Z,28.67
2018-06-02T06:03:11.815Z,27.92
2018-06-02T06:05:41.907Z,27.01
2018-06-02T06:08:11.977Z,26.17
2018-06-02T06:10:42.455Z,25.81
2018-06-02T06:13:12.531Z,25.46
2018-06-02T06:15:42.617Z,25.11
2018-06-02T06:18:12.681Z,24.80
2018-06-02T06:20:42.846Z,24.53
2018-06-02T06:23:13.363Z,24.49
2018-06-02T06:25:43.443Z,24.21
2018-06-02T06:28:13.519Z,23.84
2018-06-02T06:30:43.745Z,23.90
2018-06-02T06:33:13.552Z,24.02
2018-06-02T06:35:43.625Z,23.90
2018-06-02T06:38:13.723Z,23.79
2018-06-02T06:40:44.201Z,23.91
2018-06-02T06:43:14.773Z,24.28
2018-06-02T06:45:45.272Z,24.36
2018-06-02T06:48:15.356Z,24.07
2018-06-02T06:50:45.446Z,24.38
2018-06-02T06:53:15.922Z,24.56
2018-06-02T06:55:46.012Z,24.26
2018-06-02T06:58:16.125Z,24.46
2018-06-02T07:00:46.592Z,24.47
2018-06-02T07:03:16.669Z,24.69
2018-06-02T07:05:47.200Z,24.64
2018-06-02T07:08:17.681Z,24.54
2018-06-02T07:10:47.760Z,24.73
2018-06-02T07:13:17.899Z,24.38
2018-06-02T07:15:48.006Z,24.32
2018-06-02T07:18:18.087Z,24.13
2018-06-02T07:20:48.198Z,24.29
2018-06-02T07:23:18.265Z,24.55
2018-06-02T07:25:48.364Z,24.20
2018-06-02T07:28:18.836Z,23.89
2018-06-02T07:30:49.090Z,23.16
2018-06-02T07:33:19.201Z,22.63
2018-06-02T07:35:49.289Z,22.39
2018-06-02T07:38:19.370Z,22.43
2018-06-02T07:40:49.854Z,22.77
2018-06-02T07:43:20.518Z,22.59
2018-06-02T07:45:50.626Z,22.69
2018-06-02T07:48:20.727Z,22.86
2018-06-02T07:50:50.814Z,23.13
2018-06-02T07:53:20.894Z,23.56
2018-06-02T07:55:51.576Z,24.02
2018-06-02T07:58:21.664Z,24.29
2018-06-02T08:00:52.163Z,24.79
2018-06-02T08:03:22.257Z,25.07
2018-06-02T08:05:52.343Z,25.26
2018-06-02T08:08:22.698Z,25.21
2018-06-02T08:10:52.980Z,25.26
2018-06-02T08:13:23.449Z,25.63
2018-06-02T08:15:53.570Z,25.74
2018-06-02T08:18:23.716Z,25.50
2018-06-02T08:20:53.814Z,25.38
2018-06-02T08:23:23.904Z,25.06
2018-06-02T08:25:53.986Z,24.37
2018-06-02T08:28:24.070Z,24.53
2018-06-02T08:30:54.148Z,24.67
2018-06-02T08:33:24.861Z,25.32
2018-06-02T08:35:55.870Z,25.70
2018-06-02T08:38:25.959Z,25.88
2018-06-02T08:40:56.040Z,26.12
2018-06-02T08:43:26.149Z,25.96
2018-06-02T08:45:56.322Z,25.89
2018-06-02T08:48:26.314Z,25.00
2018-06-02T08:50:56.444Z,24.68
2018-06-02T08:53:26.519Z,24.79
2018-06-02T08:55:56.606Z,24.81
2018-06-02T08:58:26.964Z,24.78
2018-06-02T09:00:57.076Z,24.63
2018-06-02T09:03:27.198Z,24.60
2018-06-02T09:05:57.288Z,24.94
2018-06-02T09:08:27.460Z,24.89
2018-06-02T09:10:57.588Z,24.73
2018-06-02T09:13:28.062Z,25.20
2018-06-02T09:15:58.153Z,25.51
2018-06-02T09:18:28.242Z,25.79
2018-06-02T09:20:58.393Z,25.92
2018-06-02T09:23:28.642Z,26.36
2018-06-02T09:25:58.755Z,26.27
2018-06-02T09:28:28.852Z,25.64
2018-06-02T09:30:59.226Z,25.14
2018-06-02T09:33:29.326Z,25.14
2018-06-02T09:35:59.415Z,25.19
2018-06-02T09:38:29.498Z,25.42
2018-06-02T09:40:59.596Z,25.98
2018-06-02T09:43:29.682Z,26.16
2018-06-02T09:45:59.792Z,25.78
2018-06-02T09:48:30.282Z,25.70
2018-06-02T09:51:00.600Z,25.50
2018-06-02T09:53:30.692Z,25.45
2018-06-02T09:56:00.462Z,25.24
2018-06-02T09:58:30.933Z,24.70
2018-06-02T10:01:01.027Z,25.10
2018-06-02T10:03:31.500Z,24.83
2018-06-02T10:06:01.607Z,24.54
2018-06-02T10:08:31.696Z,24.33
2018-06-02T10:11:01.789Z,24.10
2018-06-02T10:13:32.260Z,23.81
2018-06-02T10:16:02.369Z,23.86
2018-06-02T10:18:32.461Z,23.82
2018-06-02T10:21:02.961Z,24.22
2018-06-02T10:23:33.082Z,24.94
2018-06-02T10:26:03.208Z,25.50
2018-06-02T10:28:33.306Z,25.07
2018-06-02T10:31:03.412Z,25.49
2018-06-02T10:33:33.519Z,24.62
2018-06-02T10:36:03.624Z,23.98
2018-06-02T10:38:34.154Z,24.01
2018-06-02T10:41:04.645Z,24.18
2018-06-02T10:43:34.710Z,24.87
2018-06-02T10:46:05.183Z,25.87
2018-06-02T10:48:35.266Z,26.56
2018-06-02T10:51:05.033Z,26.72
2018-06-02T10:53:35.112Z,26.90
2018-06-02T10:56:04.649Z,27.31
2018-06-02T10:58:34.730Z,27.77
2018-06-02T11:01:04.807Z,27.45
2018-06-02T11:03:34.920Z,28.10
2018-06-02T11:06:05.207Z,28.15
2018-06-02T11:08:35.360Z,28.00
2018-06-02T11:11:05.203Z,28.27
2018-06-02T11:13:35.274Z,28.26
2018-06-02T11:16:05.363Z,28.33
2018-06-02T11:18:35.431Z,28.56
2018-06-02T11:21:05.507Z,28.75
2018-06-02T11:23:35.736Z,29.32
2018-06-02T11:26:05.479Z,29.15
2018-06-02T11:28:35.584Z,28.22
2018-06-02T11:31:05.829Z,27.61
2018-06-02T11:33:36.250Z,27.60
2018-06-02T11:36:06.375Z,26.90
2018-06-02T11:38:36.766Z,27.09
2018-06-02T11:41:06.846Z,26.39
2018-06-02T11:43:37.366Z,25.83
2018-06-02T11:46:07.841Z,25.41
2018-06-02T11:48:37.968Z,25.62
2018-06-02T11:51:08.062Z,25.71
2018-06-02T11:53:37.845Z,26.10
2018-06-02T11:56:08.309Z,26.64
2018-06-02T11:58:38.435Z,26.53
2018-06-02T12:01:08.553Z,26.89
2018-06-02T12:03:38.642Z,27.49
2018-06-02T12:06:09.129Z,27.81
2018-06-02T12:08:39.232Z,28.01
2018-06-02T12:11:09.415Z,28.19
2018-06-02T12:13:39.517Z,28.47
2018-06-02T12:16:09.621Z,28.88
2018-06-02T12:18:39.729Z,29.15
2018-06-02T12:21:09.845Z,28.87
2018-06-02T12:23:39.973Z,28.03
2018-06-02T12:26:10.385Z,26.84
2018-06-02T12:28:40.477Z,26.84
2018-06-02T12:31:10.565Z,26.25
2018-06-02T12:33:40.681Z,26.31
2018-06-02T12:36:10.772Z,25.84
2018-06-02T12:38:40.872Z,25.87
2018-06-02T12:41:10.966Z,26.54
2018-06-02T12:43:41.071Z,26.29
2018-06-02T12:46:51.211Z,26.60
2018-06-02T12:49:21.629Z,26.75
2018-06-02T12:51:51.731Z,26.73
2018-06-02T12:54:21.808Z,26.36
2018-06-02T12:56:52.843Z,26.64
2018-06-02T12:59:23.349Z,27.16
2018-06-02T13:01:53.424Z,27.82
2018-06-02T13:04:23.495Z,28.61
2018-06-02T13:06:53.583Z,28.86
2018-06-02T13:09:23.643Z,28.41
2018-06-02T13:11:54.159Z,26.84
2018-06-02T13:14:24.679Z,26.03
2018-06-02T13:16:54.795Z,26.23
2018-06-02T13:19:24.887Z,26.33
2018-06-02T13:21:54.951Z,26.93
2018-06-02T13:24:25.071Z,27.68
2018-06-02T13:33:43.019Z,28.96
2018-06-02T13:36:13.097Z,29.03
2018-06-02T13:38:43.201Z,29.19
2018-06-02T13:41:13.663Z,29.58
2018-06-02T13:43:43.474Z,30.18
2018-06-02T13:46:13.312Z,29.63
2018-06-02T13:48:43.136Z,29.42
2018-06-02T13:51:12.971Z,29.32
2018-06-02T13:53:42.781Z,29.30
2018-06-02T13:56:14.788Z,28.67
2018-06-02T13:58:44.932Z,28.19
2018-06-02T14:01:15.136Z,28.24
2018-06-02T14:03:45.210Z,28.82
2018-06-02T14:06:15.292Z,28.54
2018-06-02T14:08:45.434Z,27.96
2018-06-02T14:11:15.512Z,28.19
2018-06-02T14:13:45.600Z,28.41
2018-06-02T14:16:16.111Z,28.13
2018-06-02T14:18:46.189Z,28.27
2018-06-02T14:21:16.469Z,28.39
2018-06-02T14:23:46.941Z,28.50
2018-06-02T14:26:17.091Z,28.21
2018-06-02T14:28:47.159Z,28.56
2018-06-02T14:31:17.254Z,28.57
2018-06-02T14:33:47.780Z,28.84
2018-06-02T14:36:17.909Z,29.23
2018-06-02T14:38:47.741Z,29.46
2018-06-02T14:41:17.284Z,29.53
2018-06-02T14:43:47.550Z,29.74
2018-06-02T14:46:17.355Z,29.15
2018-06-02T14:48:46.934Z,29.33
2018-06-02T14:51:17.088Z,29.40
2018-06-02T14:53:46.916Z,29.69
2018-06-02T14:56:16.710Z,29.90
2018-06-02T14:58:46.517Z,29.94
2018-06-02T15:01:16.294Z,29.51
2018-06-02T15:03:46.159Z,29.30
2018-06-02T15:06:16.165Z,29.27
2018-06-02T15:08:45.968Z,29.41
2018-06-02T15:11:16.378Z,29.13
2018-06-02T15:13:46.321Z,29.21
2018-06-02T15:16:16.503Z,29.15
2018-06-02T15:18:48.190Z,28.67
2018-06-02T15:21:18.272Z,28.78
2018-06-02T15:23:48.387Z,29.05
2018-06-02T15:26:18.536Z,28.85
2018-06-02T15:28:48.765Z,28.84
2018-06-02T15:31:18.872Z,28.92
2018-06-02T15:33:49.380Z,28.83
2018-06-02T15:36:19.491Z,29.16
2018-06-02T15:38:49.294Z,29.31
2018-06-02T15:41:19.091Z,29.00
2018-06-02T15:43:49.575Z,28.50
2018-06-02T15:46:19.656Z,28.71
2018-06-02T15:48:49.804Z,28.85
2018-06-02T15:51:19.900Z,28.98
2018-06-02T15:53:49.691Z,28.99
2018-06-02T15:56:19.548Z,29.22
2018-06-02T15:58:49.339Z,29.43
2018-06-02T16:01:19.176Z,29.05
2018-06-02T16:03:48.964Z,28.93
2018-06-02T16:06:18.760Z,29.10
2018-06-02T16:08:48.568Z,28.92
2018-06-02T16:11:19.052Z,28.96
2018-06-02T16:13:49.154Z,28.79
2018-06-02T16:16:18.944Z,28.48
2018-06-02T16:18:49.038Z,28.18
2018-06-02T16:21:18.832Z,28.33
2018-06-02T16:23:48.972Z,28.73
2018-06-02T16:26:19.756Z,28.81
2018-06-02T16:28:49.561Z,28.74
2018-06-02T16:31:19.653Z,28.74
2018-06-02T16:33:49.763Z,28.86
2018-06-02T16:36:19.579Z,28.85
2018-06-02T16:38:50.078Z,28.92
2018-06-02T16:41:20.375Z,28.92
2018-06-02T16:43:50.165Z,28.69
2018-06-02T16:46:20.264Z,27.96
2018-06-02T16:48:50.768Z,27.58
2018-06-02T16:51:20.832Z,27.52
2018-06-02T16:53:50.944Z,27.10
2018-06-02T16:56:21.461Z,27.11
2018-06-02T16:58:51.965Z,27.15
2018-06-02T17:01:22.026Z,26.77
2018-06-02T17:03:52.106Z,26.51
2018-06-02T17:06:22.226Z,26.32
2018-06-02T17:08:52.735Z,26.30
2018-06-02T17:11:22.896Z,26.34
2018-06-02T17:13:53.405Z,26.62
2018-06-02T17:16:23.527Z,26.48
2018-06-02T17:18:53.610Z,26.63
2018-06-02T17:21:23.719Z,26.53
2018-06-02T17:23:53.934Z,26.36
2018-06-02T17:26:24.040Z,26.42
2018-06-02T17:28:54.514Z,26.75
2018-06-02T17:31:24.591Z,26.78
2018-06-02T17:33:54.680Z,26.74
2018-06-02T17:36:24.754Z,26.73
2018-06-02T17:38:54.837Z,26.56
2018-06-02T17:41:25.337Z,26.60
2018-06-02T17:43:55.590Z,26.61
2018-06-02T17:46:26.080Z,26.30
2018-06-02T17:48:56.161Z,26.51
2018-06-02T17:51:27.171Z,26.61
2018-06-02T17:53:57.424Z,26.67
2018-06-02T17:56:27.766Z,26.63
2018-06-02T17:58:57.843Z,26.46
2018-06-02T18:01:28.341Z,26.07
2018-06-02T18:03:58.816Z,25.75
2018-06-02T18:06:28.902Z,25.70
2018-06-02T18:08:58.992Z,25.53
2018-06-02T18:11:29.102Z,25.62
2018-06-02T18:13:59.228Z,25.18
2018-06-02T18:16:29.342Z,24.89
2018-06-02T18:18:59.449Z,24.41
2018-06-02T18:21:29.735Z,24.11
2018-06-02T18:23:59.875Z,24.09
2018-06-02T18:26:30.046Z,23.98
2018-06-02T18:29:00.143Z,23.92
2018-06-02T18:31:30.429Z,23.71
2018-06-02T18:34:00.916Z,23.73
2018-06-02T18:36:31.472Z,23.69
2018-06-02T18:39:01.535Z,23.54
2018-06-02T18:41:31.684Z,23.58
2018-06-02T18:44:01.951Z,23.40
2018-06-02T18:46:32.493Z,23.33
2018-06-02T18:49:02.575Z,23.30
2018-06-02T18:51:32.943Z,23.41
2018-06-02T18:54:03.034Z,23.56
2018-06-02T18:56:33.516Z,23.60
2018-06-02T18:59:03.686Z,23.61
2018-06-02T19:01:34.156Z,23.69
2018-06-02T19:04:04.241Z,23.68
2018-06-02T19:06:34.736Z,23.60
2018-06-02T19:09:04.007Z,23.37
2018-06-02T19:11:34.072Z,23.22
2018-06-02T19:14:04.175Z,23.22
2018-06-02T19:16:34.255Z,23.18
2018-06-02T19:19:04.416Z,23.05
2018-06-02T19:21:34.528Z,23.05
2018-06-02T19:24:04.662Z,22.96
2018-06-02T19:26:34.975Z,22.94
2018-06-02T19:29:05.046Z,22.87
2018-06-02T19:31:35.132Z,22.81
2018-06-02T19:34:05.234Z,22.75
2018-06-02T19:36:35.350Z,22.66
2018-06-02T19:39:04.520Z,22.57
2018-06-02T19:41:34.596Z,22.77
2018-06-02T19:44:05.089Z,22.68
2018-06-02T19:46:35.170Z,22.68
2018-06-02T19:49:05.318Z,22.55
2018-06-02T19:51:35.386Z,22.58
2018-06-02T19:54:05.524Z,22.60
2018-06-02T19:56:35.641Z,22.43
2018-06-02T19:59:41.408Z,22.00
2018-06-02T20:02:11.800Z,22.34
2018-06-02T20:04:42.548Z,22.38
2018-06-02T20:07:13.084Z,22.24
2018-06-02T20:09:43.557Z,22.07
2018-06-02T20:12:13.891Z,21.73
2018-06-02T20:14:44.297Z,21.68
2018-06-02T20:17:15.132Z,21.58
2018-06-02T20:19:45.495Z,21.51
2018-06-02T20:22:15.898Z,21.33
2018-06-02T20:24:46.299Z,21.52
2018-06-02T20:27:16.747Z,21.54
2018-06-02T20:29:47.217Z,21.41
2018-06-02T20:32:17.629Z,21.38
2018-06-02T20:34:48.065Z,21.38
2018-06-02T20:37:18.418Z,21.41
2018-06-02T20:39:48.758Z,21.26
2018-06-02T20:42:19.195Z,21.16
2018-06-02T20:44:50.021Z,21.10
2018-06-02T20:47:20.602Z,21.20
2018-06-02T20:49:51.058Z,21.11
2018-06-02T20:52:21.437Z,21.11
2018-06-02T20:54:51.826Z,21.14
2018-06-02T20:57:22.228Z,21.11
2018-06-02T20:59:52.718Z,20.99
2018-06-02T21:03:52.485Z,20.91
2018-06-02T21:06:22.858Z,20.58
2018-06-02T21:08:53.256Z,20.51
2018-06-02T21:11:24.005Z,20.53
2018-06-02T21:13:54.347Z,20.63
2018-06-02T21:16:24.977Z,20.59
2018-06-02T21:18:55.681Z,20.54
2018-06-02T21:21:26.671Z,20.47
2018-06-02T21:23:57.033Z,20.36
2018-06-02T21:26:27.778Z,20.41
2018-06-02T21:28:58.107Z,20.48
2018-06-02T21:31:28.395Z,20.41
2018-06-02T21:33:58.721Z,20.30
2018-06-02T21:36:29.139Z,20.22
2018-06-02T21:38:59.427Z,20.20
2018-06-02T21:41:29.821Z,20.21
2018-06-02T21:44:00.247Z,20.13
2018-06-02T21:46:30.665Z,20.12
2018-06-02T21:49:01.009Z,20.00
2018-06-02T21:51:31.926Z,20.01
2018-06-02T21:54:02.323Z,20.03
2018-06-02T21:56:32.780Z,20.13
2018-06-02T21:59:03.295Z,20.39
2018-06-02T22:01:33.689Z,20.43
2018-06-02T22:04:04.679Z,20.38
2018-06-02T22:06:35.118Z,20.26
2018-06-02T22:09:06.087Z,20.14
2018-06-02T22:11:36.495Z,20.07
2018-06-02T22:14:07.315Z,19.91
2018-06-02T22:16:37.693Z,19.70
2018-06-02T22:19:08.021Z,19.72
2018-06-02T22:21:38.323Z,19.40
2018-06-02T22:24:08.733Z,19.41
2018-06-02T22:26:39.113Z,19.17
2018-06-02T22:29:09.471Z,19.15
2018-06-02T22:31:39.613Z,19.20
2018-06-02T22:34:09.993Z,19.13
2018-06-02T22:36:40.341Z,19.10
2018-06-02T22:39:10.669Z,19.27
2018-06-02T22:41:40.560Z,19.17
2018-06-02T22:44:11.693Z,19.06
2018-06-02T22:46:42.026Z,19.02
2018-06-02T22:49:12.385Z,19.04
2018-06-02T22:51:58.626Z,19.08
2018-06-02T22:54:29.503Z,19.06
2018-06-02T22:57:00.131Z,19.01
2018-06-02T22:59:31.683Z,18.97
2018-06-02T23:02:01.843Z,18.94
2018-06-02T23:04:32.673Z,18.98
2018-06-02T23:07:03.411Z,18.87
2018-06-02T23:09:33.790Z,18.86
2018-06-02T23:12:04.343Z,18.84
2018-06-02T23:14:34.701Z,18.81
2018-06-02T23:17:05.143Z,18.74
2018-06-02T23:19:34.945Z,18.79
2018-06-02T23:22:05.746Z,18.74
2018-06-02T23:24:35.545Z,18.57
2018-06-02T23:27:05.459Z,18.89
2018-06-02T23:29:35.290Z,19.00
2018-06-02T23:32:05.420Z,18.99
2018-06-02T23:34:35.227Z,18.88
2018-06-02T23:37:05.108Z,18.65
2018-06-02T23:39:34.914Z,18.58
2018-06-02T23:42:04.691Z,18.51
2018-06-02T23:44:35.114Z,18.20
2018-06-02T23:47:05.042Z,18.11
2018-06-02T23:49:34.906Z,17.82
2018-06-02T23:52:04.751Z,17.83
2018-06-02T23:54:34.880Z,17.64
2018-06-02T23:57:04.680Z,17.69
2018-06-02T23:59:34.498Z,17.80
